Time;durP1;ratioP1;P1;durP2;ratioP2;P2;SDS_P1;SDS_P2;PMS_P1;PMS_P2;Temp;Humidity;BMP_temperature;BMP_pressure;BME280_temperature;BME280_humidity;BME280_pressure;Samples;Min_cycle;Max_cycle;Signal;HPM_P1;HPM_P2
2022/08/12 00:42:52;;;;;;;1.73;1.63;;;;;;;;;;5054928;28;20104;-44
2022/08/12 00:45:18;;;;;;;2.05;1.30;;;;;;;;;;5054650;28;20158;-48
2022/08/12 00:47:44;;;;;;;0.95;0.82;;;;;;;;;;5054715;28;20048;-50
2022/08/12 00:50:18;;;;;;;2.92;1.70;;;;;;;;;;5054513;28;20071;-50
2022/08/12 00:52:48;;;;;;;1.52;1.20;;;;;;;;;;5054719;28;20033;-47
2022/08/12 00:55:15;;;;;;;2.08;1.60;;;;;;;;;;5054371;28;20033;-46
2022/08/12 00:57:46;;;;;;;1.77;1.58;;;;;;;;;;5036275;28;20120;-46
2022/08/12 01:00:23;;;;;;;2.72;1.80;;;;;;;;;;5054543;28;20028;-48
2022/08/12 01:02:56;;;;;;;1.67;1.55;;;;;;;;;;5054515;28;20029;-49
2022/08/12 01:11:30;;;;;;;2.92;1.58;;;;;;;;;;4972985;28;20030;-43
2022/08/12 01:13:57;;;;;;;2.58;1.90;;;;;;;;;;4956853;28;20034;-47
2022/08/12 01:16:25;;;;;;;5.40;1.90;;;;;;;;;;5020610;28;20415;-49
2022/08/12 01:18:53;;;;;;;3.42;1.83;;;;;;;;;;5053817;28;20395;-46
2022/08/12 01:21:25;;;;;;;2.60;1.92;;;;;;;;;;5053819;28;20068;-53
2022/08/12 01:24:12;;;;;;;2.22;1.75;;;;;;;;;;5053726;28;20071;-52
2022/08/12 01:26:39;;;;;;;2.05;1.80;;;;;;;;;;5035910;28;20465;-47
2022/08/12 01:29:06;;;;;;;2.00;1.55;;;;;;;;;;5053764;28;20024;-50
2022/08/12 01:31:35;;;;;;;2.42;1.50;;;;;;;;;;5053682;28;20045;-48
2022/08/12 01:34:09;;;;;;;2.43;1.70;;;;;;;;;;5053587;28;20065;-49
2022/08/12 01:36:45;;;;;;;2.58;1.67;;;;;;;;;;5053832;28;20057;-47
2022/08/12 01:39:15;;;;;;;3.42;1.90;;;;;;;;;;5053635;28;20017;-52
2022/08/12 01:41:46;;;;;;;3.08;1.67;;;;;;;;;;5053717;28;20024;-49
2022/08/12 01:44:13;;;;;;;1.70;1.60;;;;;;;;;;5053527;28;20163;-49
2022/08/12 01:46:52;;;;;;;3.45;1.85;;;;;;;;;;5053361;28;20018;-42
2022/08/12 01:49:37;;;;;;;1.67;1.58;;;;;;;;;;5053401;28;20021;-42
2022/08/12 01:52:05;;;;;;;1.90;1.60;;;;;;;;;;5053639;28;20029;-51
2022/08/12 01:54:41;;;;;;;2.85;1.98;;;;;;;;;;5053452;28;20025;-47
2022/08/12 01:57:19;;;;;;;1.77;1.60;;;;;;;;;;5053365;28;20384;-50
2022/08/12 01:59:49;;;;;;;2.08;1.75;;;;;;;;;;5035695;28;20025;-48
2022/08/12 02:02:18;;;;;;;1.77;1.67;;;;;;;;;;5053170;28;20380;-42
2022/08/12 02:11:22;;;;;;;3.00;1.90;;;;;;;;;;5052937;28;20400;-45
2022/08/12 02:14:24;;;;;;;5.40;1.73;;;;;;;;;;5048987;28;20032;-42
2022/08/12 02:17:04;;;;;;;1.70;1.60;;;;;;;;;;5052828;28;20025;-44
2022/08/12 02:19:54;;;;;;;2.42;1.75;;;;;;;;;;5052868;28;20372;-42
2022/08/12 02:22:43;;;;;;;1.60;1.50;;;;;;;;;;5053039;28;20029;-42
2022/08/12 02:25:21;;;;;;;3.03;2.10;;;;;;;;;;5052916;28;20036;-42
2022/08/12 02:27:53;;;;;;;2.40;1.80;;;;;;;;;;5052663;28;20090;-42
2022/08/12 02:30:25;;;;;;;2.00;1.80;;;;;;;;;;5052557;28;20033;-43
2022/08/12 02:32:53;;;;;;;2.00;1.80;;;;;;;;;;5052430;28;20045;-42
2022/08/12 02:35:21;;;;;;;2.10;1.80;;;;;;;;;;5052588;28;20028;-44
2022/08/12 02:37:50;;;;;;;1.95;1.75;;;;;;;;;;5052495;28;20033;-41
2022/08/12 02:40:17;;;;;;;1.67;1.58;;;;;;;;;;5052741;28;20079;-43
2022/08/12 02:42:53;;;;;;;2.22;1.90;;;;;;;;;;5052344;28;20112;-42
2022/08/12 02:45:44;;;;;;;4.68;1.90;;;;;;;;;;5052688;28;20124;-42
2022/08/12 02:48:13;;;;;;;;;;;;;;;;;;5041203;28;20041;-43
2022/08/12 02:50:44;;;;;;;2.78;2.00;;;;;;;;;;5052392;28;20359;-44
2022/08/12 02:53:10;;;;;;;1.70;1.60;;;;;;;;;;5052337;28;20049;-45
2022/08/12 02:55:36;;;;;;;1.98;1.80;;;;;;;;;;5052293;28;20067;-47
2022/08/12 02:58:06;;;;;;;2.75;1.88;;;;;;;;;;5052496;28;20079;-43
2022/08/12 03:00:32;;;;;;;1.75;1.60;;;;;;;;;;5052505;28;20448;-42
2022/08/12 03:03:03;;;;;;;3.38;1.90;;;;;;;;;;5052199;28;20036;-42
2022/08/12 03:05:31;;;;;;;1.77;1.67;;;;;;;;;;5052190;28;20087;-43
2022/08/12 03:08:03;;;;;;;2.33;1.70;;;;;;;;;;5052052;28;20029;-47
2022/08/12 03:10:38;;;;;;;4.82;1.67;;;;;;;;;;5052493;28;20044;-43
2022/08/12 03:13:05;;;;;;;2.10;1.90;;;;;;;;;;5052412;28;20163;-45
2022/08/12 03:15:31;;;;;;;2.88;1.70;;;;;;;;;;5052077;28;20033;-43
2022/08/12 03:18:26;;;;;;;1.83;1.67;;;;;;;;;;5051948;28;20040;-44
2022/08/12 03:20:52;;;;;;;7.85;2.00;;;;;;;;;;5026654;28;20366;-44
2022/08/12 03:23:21;;;;;;;6.30;2.05;;;;;;;;;;5055946;28;20032;-42
2022/08/12 03:25:50;;;;;;;3.10;1.90;;;;;;;;;;5056028;28;20025;-42
2022/08/12 03:28:49;;;;;;;5.53;2.10;;;;;;;;;;5056072;28;20029;-43
2022/08/12 03:31:05;;;;;;;3.47;1.77;;;;;;;;;;5040802;28;20029;-43
2022/08/12 03:33:37;;;;;;;5.90;2.20;;;;;;;;;;5055933;28;20025;-44
2022/08/12 03:36:08;;;;;;;2.67;2.03;;;;;;;;;;5055848;28;20510;-48
2022/08/12 03:38:37;;;;;;;2.83;2.10;;;;;;;;;;5055749;28;20115;-46
2022/08/12 04:00:47;;;;;;;1.90;1.67;;;;;;;;;;5055717;28;20032;-44
2022/08/12 04:05:57;;;;;;;4.72;1.90;;;;;;;;;;5055549;28;20032;-44
2022/08/12 04:08:26;;;;;;;1.77;1.42;;;;;;;;;;5055532;28;20029;-46
2022/08/12 04:13:42;;;;;;;4.45;1.65;;;;;;;;;;5055270;28;20079;-46
2022/08/12 04:16:09;;;;;;;10.10;1.80;;;;;;;;;;5055271;28;20021;-45
2022/08/12 04:18:37;;;;;;;4.75;1.60;;;;;;;;;;5055261;28;20378;-47
2022/08/12 04:21:10;;;;;;;2.30;1.50;;;;;;;;;;5055270;28;20025;-47
2022/08/12 04:23:41;;;;;;;2.42;1.60;;;;;;;;;;5055239;28;20025;-51
2022/08/12 04:26:07;;;;;;;2.58;1.55;;;;;;;;;;5054817;28;20068;-49
2022/08/12 04:28:33;;;;;;;1.42;1.33;;;;;;;;;;5054787;28;20051;-47
2022/08/12 04:31:00;;;;;;;2.10;1.90;;;;;;;;;;5054505;28;20036;-48
2022/08/12 04:33:25;;;;;;;1.83;1.48;;;;;;;;;;5054043;28;20099;-50
2022/08/12 04:35:52;;;;;;;1.80;1.67;;;;;;;;;;5054991;28;20477;-46
2022/08/12 04:38:18;;;;;;;1.80;1.40;;;;;;;;;;5054661;28;20491;-49
2022/08/12 04:40:45;;;;;;;1.83;1.60;;;;;;;;;;5054590;28;20029;-49
2022/08/12 04:43:10;;;;;;;3.08;1.50;;;;;;;;;;5054917;28;20111;-46
2022/08/12 04:45:37;;;;;;;3.45;1.73;;;;;;;;;;5054729;28;20536;-51
2022/08/12 04:48:04;;;;;;;3.40;1.60;;;;;;;;;;5054537;28;20469;-48
2022/08/12 04:50:31;;;;;;;1.63;1.52;;;;;;;;;;5054532;28;20104;-46
2022/08/12 04:52:59;;;;;;;2.05;1.40;;;;;;;;;;5054471;28;20025;-45
2022/08/12 04:55:26;;;;;;;1.70;1.42;;;;;;;;;;5054312;28;20031;-48
2022/08/12 04:57:52;;;;;;;3.65;1.73;;;;;;;;;;5054273;28;20535;-48
2022/08/12 05:00:18;;;;;;;10.75;1.80;;;;;;;;;;5054181;28;20032;-44
2022/08/12 05:02:43;;;;;;;14.15;1.75;;;;;;;;;;5054528;28;20025;-45
2022/08/12 05:05:17;;;;;;;2.35;1.40;;;;;;;;;;5054041;28;20029;-48
2022/08/12 05:07:43;;;;;;;3.47;1.67;;;;;;;;;;5054171;28;20028;-45
2022/08/12 05:10:09;;;;;;;2.53;1.50;;;;;;;;;;5054343;28;20060;-45
2022/08/12 05:12:46;;;;;;;2.72;1.60;;;;;;;;;;5054036;28;20053;-42
2022/08/12 05:15:12;;;;;;;2.85;1.60;;;;;;;;;;5054060;28;20032;-51
2022/08/12 05:17:42;;;;;;;3.58;1.65;;;;;;;;;;5054002;28;20082;-46
2022/08/12 05:20:09;;;;;;;3.90;2.13;;;;;;;;;;5054269;28;20357;-52
2022/08/12 05:22:35;;;;;;;4.25;1.85;;;;;;;;;;5053800;28;20258;-49
2022/08/12 05:25:01;;;;;;;4.60;1.70;;;;;;;;;;5053872;28;20042;-50
2022/08/12 05:27:27;;;;;;;5.15;1.52;;;;;;;;;;5053875;28;20066;-46
2022/08/12 05:29:52;;;;;;;2.05;1.50;;;;;;;;;;5053853;28;20029;-49
2022/08/12 05:32:19;;;;;;;1.83;1.67;;;;;;;;;;5053694;28;20058;-42
2022/08/12 05:34:48;;;;;;;2.47;1.30;;;;;;;;;;5053871;28;20029;-49
2022/08/12 05:37:14;;;;;;;1.30;1.20;;;;;;;;;;5053671;28;20033;-51
2022/08/12 05:39:40;;;;;;;2.90;1.85;;;;;;;;;;5053756;28;20033;-48
2022/08/12 05:42:07;;;;;;;1.65;1.55;;;;;;;;;;5053726;28;20186;-42
2022/08/12 05:44:33;;;;;;;2.78;1.83;;;;;;;;;;5052244;28;20599;-43
2022/08/12 05:46:58;;;;;;;1.40;1.30;;;;;;;;;;5053272;28;20036;-43
2022/08/12 05:49:24;;;;;;;1.02;1.02;;;;;;;;;;5053589;28;20029;-40
2022/08/12 05:51:50;;;;;;;3.13;1.65;;;;;;;;;;5053197;28;20025;-44
2022/08/12 05:54:17;;;;;;;3.35;1.80;;;;;;;;;;5053428;28;20036;-49
2022/08/12 05:56:44;;;;;;;4.22;1.80;;;;;;;;;;5053248;28;20566;-41
2022/08/12 05:59:10;;;;;;;3.03;2.20;;;;;;;;;;5053107;28;20499;-42
2022/08/12 06:01:36;;;;;;;5.35;1.80;;;;;;;;;;5053075;28;20541;-42
2022/08/12 06:04:02;;;;;;;2.97;1.50;;;;;;;;;;5052931;28;20029;-43
2022/08/12 06:06:28;;;;;;;3.50;2.13;;;;;;;;;;5053135;28;20025;-43
2022/08/12 06:08:54;;;;;;;1.02;1.02;;;;;;;;;;5053155;28;20048;-48
2022/08/12 06:11:23;;;;;;;5.43;1.70;;;;;;;;;;5052886;28;20155;-47
2022/08/12 06:13:50;;;;;;;1.50;1.40;;;;;;;;;;5053222;28;20034;-50
2022/08/12 06:16:19;;;;;;;1.02;1.02;;;;;;;;;;5053038;28;20033;-49
2022/08/12 06:18:44;;;;;;;2.25;1.73;;;;;;;;;;5052609;28;20112;-48
2022/08/12 06:21:13;;;;;;;1.50;1.23;;;;;;;;;;5052729;28;20160;-48
2022/08/12 06:23:39;;;;;;;5.50;2.00;;;;;;;;;;5052759;28;20028;-48
2022/08/12 06:26:10;;;;;;;2.28;1.73;;;;;;;;;;5052619;28;20049;-43
2022/08/12 06:28:37;;;;;;;1.30;1.20;;;;;;;;;;5052487;28;20506;-45
2022/08/12 06:31:04;;;;;;;5.80;1.63;;;;;;;;;;5052683;28;20530;-43
2022/08/12 06:33:29;;;;;;;2.15;1.70;;;;;;;;;;5051316;28;20052;-46
2022/08/12 06:35:56;;;;;;;1.77;1.65;;;;;;;;;;5050940;28;20036;-41
2022/08/12 06:38:24;;;;;;;3.75;1.40;;;;;;;;;;5052376;28;20025;-45
2022/08/12 06:43:42;;;;;;;1.73;1.60;;;;;;;;;;5049919;28;20067;-46
2022/08/12 06:46:10;;;;;;;2.50;1.58;;;;;;;;;;5051877;28;20032;-42
2022/08/12 06:48:36;;;;;;;1.60;1.50;;;;;;;;;;5052036;28;20091;-43
2022/08/12 06:51:03;;;;;;;4.80;1.98;;;;;;;;;;5045253;28;20123;-48
2022/08/12 06:53:31;;;;;;;1.85;1.30;;;;;;;;;;5032472;28;20111;-44
2022/08/12 06:55:59;;;;;;;2.17;2.00;;;;;;;;;;5049961;28;20116;-42
2022/08/12 06:58:26;;;;;;;1.83;1.58;;;;;;;;;;5050756;28;20063;-43
2022/08/12 07:00:54;;;;;;;3.72;1.48;;;;;;;;;;5050892;28;20087;-42
2022/08/12 07:03:26;;;;;;;4.35;1.85;;;;;;;;;;5050117;28;20059;-43
2022/08/12 07:05:52;;;;;;;4.90;1.60;;;;;;;;;;5050385;28;20028;-43
2022/08/12 07:08:18;;;;;;;2.25;1.60;;;;;;;;;;5050671;28;20414;-46
2022/08/12 07:10:52;;;;;;;1.23;1.13;;;;;;;;;;5050454;28;20037;-46
2022/08/12 07:13:19;;;;;;;4.10;1.58;;;;;;;;;;5050228;28;20115;-44
2022/08/12 07:15:45;;;;;;;1.58;1.48;;;;;;;;;;5050641;28;20037;-43
2022/08/12 07:18:16;;;;;;;1.40;1.30;;;;;;;;;;5050719;28;20412;-48
2022/08/12 07:20:43;;;;;;;3.35;1.70;;;;;;;;;;5050425;28;20056;-40
2022/08/12 07:23:10;;;;;;;3.17;2.00;;;;;;;;;;5050192;28;20029;-41
2022/08/12 07:25:36;;;;;;;2.00;1.50;;;;;;;;;;5049571;28;20025;-42
2022/08/12 07:28:17;;;;;;;6.97;1.77;;;;;;;;;;5050645;28;20178;-44
2022/08/12 07:30:44;;;;;;;4.68;1.45;;;;;;;;;;5050061;28;20067;-44
2022/08/12 07:33:10;;;;;;;2.22;1.85;;;;;;;;;;5049698;28;20053;-41
2022/08/12 07:35:44;;;;;;;1.75;1.40;;;;;;;;;;5050198;28;20029;-42
2022/08/12 07:38:24;;;;;;;3.35;1.90;;;;;;;;;;5050065;28;20044;-43
2022/08/12 07:41:12;;;;;;;;;;;;;;;;;;5050867;28;20461;-47
2022/08/12 07:43:45;;;;;;;3.70;1.90;;;;;;;;;;5037477;28;19916;-42
2022/08/12 07:46:13;;;;;;;6.07;2.20;;;;;;;;;;5050327;28;20047;-48
2022/08/12 07:48:52;;;;;;;1.58;1.38;;;;;;;;;;5050171;28;20031;-50
2022/08/12 07:51:19;;;;;;;2.20;1.85;;;;;;;;;;5050501;28;20032;-46
2022/08/12 07:53:45;;;;;;;1.67;1.38;;;;;;;;;;5049960;28;20035;-50
2022/08/12 07:56:11;;;;;;;2.35;1.92;;;;;;;;;;5050367;28;20025;-45
2022/08/12 07:58:38;;;;;;;5.10;2.00;;;;;;;;;;5049902;28;20063;-50
2022/08/12 08:01:17;;;;;;;3.25;2.00;;;;;;;;;;5050042;28;20032;-50
2022/08/12 08:06:30;;;;;;;1.80;1.70;;;;;;;;;;5050478;28;20090;-44
2022/08/12 08:09:04;;;;;;;4.68;2.22;;;;;;;;;;5035223;28;20020;-50
2022/08/12 08:14:14;;;;;;;1.92;1.67;;;;;;;;;;5053843;28;20051;-43
2022/08/12 08:16:41;;;;;;;4.63;2.30;;;;;;;;;;5053589;28;20029;-51
2022/08/12 08:19:08;;;;;;;1.63;1.52;;;;;;;;;;5053224;28;20079;-54
2022/08/12 08:21:34;;;;;;;2.53;2.10;;;;;;;;;;5053317;28;20499;-49
2022/08/12 08:24:15;;;;;;;3.40;1.80;;;;;;;;;;5053574;28;20766;-48
2022/08/12 08:26:48;;;;;;;4.80;1.75;;;;;;;;;;5053330;28;20389;-49
2022/08/12 08:29:15;;;;;;;4.80;1.42;;;;;;;;;;5053169;28;20485;-47
2022/08/12 08:31:44;;;;;;;5.00;1.77;;;;;;;;;;5052899;28;20049;-51
2022/08/12 08:34:13;;;;;;;1.92;1.73;;;;;;;;;;5053228;28;20063;-52
2022/08/12 08:36:39;;;;;;;3.42;2.15;;;;;;;;;;5052897;28;20041;-53
2022/08/12 08:39:06;;;;;;;8.35;2.40;;;;;;;;;;5053033;28;20033;-49
2022/08/12 08:44:16;;;;;;;5.05;2.08;;;;;;;;;;5052998;28;20518;-48
2022/08/12 08:46:43;;;;;;;1.65;1.55;;;;;;;;;;5052899;28;20111;-52
2022/08/12 08:49:10;;;;;;;6.63;1.80;;;;;;;;;;5053220;28;20120;-55
2022/08/12 08:51:39;;;;;;;10.60;2.42;;;;;;;;;;5018385;28;20571;-49
2022/08/12 08:54:07;;;;;;;2.83;1.95;;;;;;;;;;5052807;28;20514;-50
2022/08/12 08:56:41;;;;;;;5.80;1.77;;;;;;;;;;5035131;28;20510;-43
2022/08/12 08:59:07;;;;;;;1.58;1.40;;;;;;;;;;5052478;28;20033;-45
2022/08/12 09:01:33;;;;;;;4.30;1.70;;;;;;;;;;5052861;28;20078;-40
2022/08/12 09:03:58;;;;;;;3.13;1.38;;;;;;;;;;5052861;28;20025;-56
2022/08/12 09:06:24;;;;;;;3.45;1.73;;;;;;;;;;5052531;28;20033;-48
2022/08/12 09:08:49;;;;;;;1.95;1.75;;;;;;;;;;5052771;28;20029;-48
2022/08/12 09:13:59;;;;;;;7.13;2.53;;;;;;;;;;5052735;28;20031;-47
2022/08/12 09:16:24;;;;;;;4.18;1.90;;;;;;;;;;5052607;28;20128;-56
2022/08/12 09:18:50;;;;;;;4.43;1.73;;;;;;;;;;5051877;28;20468;-53
2022/08/12 09:21:15;;;;;;;2.20;1.77;;;;;;;;;;5052053;28;20021;-53
2022/08/12 09:23:41;;;;;;;4.03;1.95;;;;;;;;;;5052281;28;20036;-42
2022/08/12 09:26:08;;;;;;;1.75;1.65;;;;;;;;;;5051530;28;20029;-44
2022/08/12 09:28:34;;;;;;;6.45;1.80;;;;;;;;;;5052436;28;20017;-43
2022/08/12 09:31:00;;;;;;;7.85;1.42;;;;;;;;;;5052309;28;20140;-42
2022/08/12 09:33:32;;;;;;;6.05;1.90;;;;;;;;;;5051672;28;20048;-51
2022/08/12 09:35:59;;;;;;;6.25;1.92;;;;;;;;;;5051839;28;20044;-46
2022/08/12 09:38:27;;;;;;;4.38;2.13;;;;;;;;;;5033622;28;20043;-50
2022/08/12 09:40:53;;;;;;;2.95;1.83;;;;;;;;;;5051779;28;20040;-48
2022/08/12 09:46:02;;;;;;;2.42;1.65;;;;;;;;;;5036765;28;20239;-45
2022/08/12 09:48:28;;;;;;;1.80;1.70;;;;;;;;;;5051703;28;20104;-53
2022/08/12 09:50:55;;;;;;;8.27;2.30;;;;;;;;;;5051675;28;20110;-47
2022/08/12 09:53:23;;;;;;;4.65;1.90;;;;;;;;;;5051577;28;20056;-50
2022/08/12 09:55:53;;;;;;;3.22;2.17;;;;;;;;;;5051903;28;20060;-53
2022/08/12 09:58:27;;;;;;;2.33;1.80;;;;;;;;;;5051753;28;20044;-52
2022/08/12 10:01:03;;;;;;;3.38;1.80;;;;;;;;;;5051939;28;20029;-47
2022/08/12 10:03:35;;;;;;;7.75;1.85;;;;;;;;;;5050918;28;20477;-41
2022/08/12 10:06:05;;;;;;;3.90;2.10;;;;;;;;;;5051495;28;20397;-54
2022/08/12 10:08:32;;;;;;;3.25;1.77;;;;;;;;;;5051352;28;20021;-44
2022/08/12 10:13:45;;;;;;;4.80;2.38;;;;;;;;;;5051143;28;20039;-44
2022/08/12 10:16:19;;;;;;;2.75;2.10;;;;;;;;;;5050737;28;20021;-42
2022/08/12 10:18:49;;;;;;;3.70;2.30;;;;;;;;;;5050654;28;20039;-43
2022/08/12 10:21:18;;;;;;;9.05;2.00;;;;;;;;;;5049958;28;20033;-45
2022/08/12 10:23:46;;;;;;;6.32;2.03;;;;;;;;;;5050619;28;20044;-46
2022/08/12 10:31:50;;;;;;;7.38;2.40;;;;;;;;;;5051089;28;20135;-41
2022/08/12 10:34:17;;;;;;;8.73;2.20;;;;;;;;;;5050999;28;20063;-44
2022/08/12 10:36:43;;;;;;;3.45;2.17;;;;;;;;;;5049915;28;20116;-43
2022/08/12 10:39:12;;;;;;;3.50;1.75;;;;;;;;;;5032733;28;20600;-41
2022/08/12 10:44:22;;;;;;;3.03;2.42;;;;;;;;;;5051187;28;20032;-53
2022/08/12 10:46:51;;;;;;;3.80;1.63;;;;;;;;;;5050790;28;20643;-40
2022/08/12 10:49:18;;;;;;;0.97;0.97;;;;;;;;;;5050874;28;20063;-46
2022/08/12 10:51:44;;;;;;;1.60;1.50;;;;;;;;;;5050747;28;20179;-50
2022/08/12 10:54:12;;;;;;;2.50;1.67;;;;;;;;;;5050481;28;20116;-45
2022/08/12 10:56:40;;;;;;;5.80;1.80;;;;;;;;;;5050490;28;20078;-46
2022/08/12 10:59:06;;;;;;;2.72;1.70;;;;;;;;;;5050763;28;20064;-45
2022/08/12 11:01:32;;;;;;;3.00;1.92;;;;;;;;;;5050419;28;20060;-41
2022/08/12 11:04:01;;;;;;;1.67;1.58;;;;;;;;;;5050892;28;20025;-45
2022/08/12 11:06:27;;;;;;;1.65;1.50;;;;;;;;;;5050599;28;20037;-45
2022/08/12 11:08:55;;;;;;;8.88;2.30;;;;;;;;;;5050541;28;20040;-49
2022/08/12 11:11:22;;;;;;;2.55;1.40;;;;;;;;;;5050706;28;20037;-41
2022/08/12 11:13:47;;;;;;;2.17;1.70;;;;;;;;;;5049963;28;20037;-41
2022/08/12 11:16:15;;;;;;;2.17;1.77;;;;;;;;;;5050463;28;20545;-47
2022/08/12 11:18:40;;;;;;;8.30;1.92;;;;;;;;;;5050333;28;20056;-44
2022/08/12 11:21:06;;;;;;;4.13;1.90;;;;;;;;;;5050314;28;20063;-43
2022/08/12 11:23:31;;;;;;;2.28;1.63;;;;;;;;;;5049957;28;20048;-53
2022/08/12 11:25:57;;;;;;;5.82;1.60;;;;;;;;;;5050731;28;20040;-42
2022/08/12 11:28:22;;;;;;;3.88;1.67;;;;;;;;;;5050252;28;20079;-51
2022/08/12 11:30:47;;;;;;;3.97;2.08;;;;;;;;;;5050109;28;20050;-40
2022/08/12 11:33:13;;;;;;;4.25;1.35;;;;;;;;;;5049985;28;20053;-42
2022/08/12 11:35:41;;;;;;;2.83;1.40;;;;;;;;;;5050378;28;20476;-48
2022/08/12 11:38:06;;;;;;;3.00;1.40;;;;;;;;;;5049543;28;20029;-43
2022/08/12 11:40:32;;;;;;;3.80;1.70;;;;;;;;;;5050245;28;20392;-51
2022/08/12 11:42:59;;;;;;;2.65;1.75;;;;;;;;;;5052751;28;20025;-47
2022/08/12 11:45:26;;;;;;;3.45;1.63;;;;;;;;;;5054278;28;20404;-48
2022/08/12 11:47:53;;;;;;;3.80;1.50;;;;;;;;;;5053996;28;20033;-48
2022/08/12 11:50:19;;;;;;;2.22;1.30;;;;;;;;;;5054549;28;20102;-49
2022/08/12 11:52:49;;;;;;;3.28;1.40;;;;;;;;;;5054282;28;20036;-48
2022/08/12 11:55:15;;;;;;;1.80;1.33;;;;;;;;;;5053797;28;20707;-40
2022/08/12 11:57:50;;;;;;;3.40;1.58;;;;;;;;;;5053501;28;20079;-44
2022/08/12 12:00:17;;;;;;;8.35;1.25;;;;;;;;;;5053842;28;20025;-46
2022/08/12 12:02:42;;;;;;;1.50;1.40;;;;;;;;;;5053709;28;20032;-47
2022/08/12 12:05:08;;;;;;;1.52;1.23;;;;;;;;;;5053797;28;20025;-45
2022/08/12 12:07:40;;;;;;;3.15;1.50;;;;;;;;;;5053201;28;20058;-51
2022/08/12 12:10:06;;;;;;;2.20;2.00;;;;;;;;;;5053696;28;20033;-53
2022/08/12 12:12:32;;;;;;;2.42;1.58;;;;;;;;;;5053947;28;20051;-49
2022/08/12 12:14:57;;;;;;;2.13;1.67;;;;;;;;;;5053490;28;20044;-50
2022/08/12 12:17:25;;;;;;;3.63;1.80;;;;;;;;;;5052515;28;20100;-47
2022/08/12 12:19:52;;;;;;;1.50;1.40;;;;;;;;;;5053768;28;20496;-53
2022/08/12 12:22:17;;;;;;;1.70;1.60;;;;;;;;;;5035746;28;20033;-46
2022/08/12 12:24:45;;;;;;;1.50;1.40;;;;;;;;;;5053412;28;20033;-51
2022/08/12 12:27:11;;;;;;;2.20;1.60;;;;;;;;;;5053750;28;20376;-43
2022/08/12 12:29:36;;;;;;;1.60;1.50;;;;;;;;;;5053519;28;20021;-43
2022/08/12 12:32:02;;;;;;;1.70;1.60;;;;;;;;;;5053383;28;20132;-44
2022/08/12 12:34:27;;;;;;;1.40;1.30;;;;;;;;;;5053497;28;20099;-52
2022/08/12 12:36:53;;;;;;;5.22;2.10;;;;;;;;;;5053496;28;20036;-54
2022/08/12 12:39:18;;;;;;;1.40;1.30;;;;;;;;;;5053004;28;20052;-53
2022/08/12 12:41:44;;;;;;;3.53;1.83;;;;;;;;;;5053433;28;20036;-43
2022/08/12 12:44:09;;;;;;;2.25;1.63;;;;;;;;;;5052941;28;20025;-47
2022/08/12 12:46:35;;;;;;;2.25;1.77;;;;;;;;;;5052818;28;20108;-43
2022/08/12 12:49:00;;;;;;;3.40;1.70;;;;;;;;;;5052790;28;20412;-41
2022/08/12 12:51:26;;;;;;;5.82;1.65;;;;;;;;;;5052706;28;20040;-44
2022/08/12 12:53:53;;;;;;;12.43;2.28;;;;;;;;;;5052538;28;20033;-44
2022/08/12 12:56:22;;;;;;;1.50;1.40;;;;;;;;;;5034948;28;20076;-53
2022/08/12 12:58:51;;;;;;;1.40;1.30;;;;;;;;;;5052712;28;20033;-44
2022/08/12 13:01:24;;;;;;;;;;;;;;;;;;5053357;28;20036;-53
2022/08/12 13:03:55;;;;;;;1.52;1.42;;;;;;;;;;5053040;28;19913;-51
2022/08/12 13:06:28;;;;;;;1.40;1.30;;;;;;;;;;5052673;28;20404;-51
2022/08/12 13:08:55;;;;;;;3.00;1.60;;;;;;;;;;5052624;28;20480;-51
2022/08/12 13:11:21;;;;;;;7.00;1.50;;;;;;;;;;5052382;28;20040;-45
2022/08/12 13:13:52;;;;;;;8.85;1.70;;;;;;;;;;5052448;28;20029;-49
2022/08/12 13:16:21;;;;;;;1.50;1.40;;;;;;;;;;5034435;28;20021;-54
2022/08/12 13:18:48;;;;;;;2.70;1.70;;;;;;;;;;5051934;28;20032;-45
2022/08/12 13:21:17;;;;;;;1.45;1.35;;;;;;;;;;5052408;28;20045;-50
2022/08/12 13:23:46;;;;;;;1.67;1.58;;;;;;;;;;5052396;28;20040;-52
2022/08/12 13:26:16;;;;;;;2.88;1.88;;;;;;;;;;5052466;28;20064;-49
2022/08/12 13:28:44;;;;;;;1.95;1.40;;;;;;;;;;5051919;28;20029;-48
2022/08/12 13:31:16;;;;;;;3.33;1.35;;;;;;;;;;5052024;28;20048;-53
2022/08/12 13:33:42;;;;;;;1.85;1.67;;;;;;;;;;5051931;28;20041;-54
2022/08/12 13:36:09;;;;;;;11.52;2.40;;;;;;;;;;5051557;28;20086;-49
2022/08/12 13:38:45;;;;;;;11.98;2.15;;;;;;;;;;5033691;28;20037;-51
2022/08/12 13:41:31;;;;;;;5.40;2.10;;;;;;;;;;5052105;28;20114;-48
2022/08/12 13:43:59;;;;;;;1.77;1.50;;;;;;;;;;5051859;28;20025;-60
2022/08/12 13:46:25;;;;;;;3.92;1.95;;;;;;;;;;5051822;28;20435;-62
2022/08/12 13:48:53;;;;;;;3.28;1.50;;;;;;;;;;5033768;28;20039;-58
2022/08/12 13:51:19;;;;;;;3.92;1.45;;;;;;;;;;5051522;28;20029;-51
2022/08/12 13:53:44;;;;;;;3.63;1.50;;;;;;;;;;5051669;28;20113;-48
2022/08/12 13:56:10;;;;;;;1.40;1.30;;;;;;;;;;5051402;28;20104;-50
2022/08/12 13:58:41;;;;;;;4.50;1.05;;;;;;;;;;5051558;28;20040;-60
2022/08/12 14:01:07;;;;;;;4.38;1.52;;;;;;;;;;5051290;28;20029;-62
2022/08/12 14:03:32;;;;;;;10.50;1.70;;;;;;;;;;5051498;28;20036;-62
2022/08/12 14:06:01;;;;;;;4.55;1.98;;;;;;;;;;5050085;28;20099;-61
2022/08/12 14:08:27;;;;;;;1.75;1.40;;;;;;;;;;5032802;28;20024;-50
2022/08/12 14:10:54;;;;;;;1.85;1.40;;;;;;;;;;5050595;28;20396;-48
2022/08/12 14:13:28;;;;;;;0.90;0.90;;;;;;;;;;5033563;28;20037;-48
2022/08/12 14:16:01;;;;;;;1.70;1.20;;;;;;;;;;5051263;28;20033;-50
2022/08/12 14:18:34;;;;;;;1.30;1.20;;;;;;;;;;5050679;28;20033;-54
2022/08/12 14:21:03;;;;;;;1.13;1.05;;;;;;;;;;5051191;28;20029;-60
2022/08/12 14:23:33;;;;;;;1.50;1.40;;;;;;;;;;5050901;28;20036;-47
2022/08/12 14:26:01;;;;;;;1.30;1.10;;;;;;;;;;5050986;28;20108;-52
2022/08/12 14:28:31;;;;;;;2.72;1.33;;;;;;;;;;5051039;28;20032;-49
2022/08/12 14:30:59;;;;;;;1.58;1.40;;;;;;;;;;5050961;28;20115;-53
2022/08/12 14:33:29;;;;;;;2.45;1.50;;;;;;;;;;5050316;28;20036;-48
2022/08/12 14:35:57;;;;;;;3.33;1.38;;;;;;;;;;5050656;28;20041;-52
2022/08/12 14:38:39;;;;;;;1.50;1.40;;;;;;;;;;5050273;28;20029;-52
2022/08/12 14:41:08;;;;;;;4.15;1.50;;;;;;;;;;5048709;28;20064;-51
2022/08/12 14:43:37;;;;;;;5.07;1.23;;;;;;;;;;5050407;28;20038;-49
2022/08/12 14:46:11;;;;;;;12.20;2.07;;;;;;;;;;5032524;28;20037;-49
2022/08/12 14:48:38;;;;;;;1.95;1.30;;;;;;;;;;5050822;28;20645;-49
2022/08/12 14:51:04;;;;;;;2.15;1.33;;;;;;;;;;5049099;28;20547;-56
2022/08/12 14:53:30;;;;;;;1.50;1.30;;;;;;;;;;5050445;28;20060;-61
2022/08/12 14:55:56;;;;;;;1.50;1.40;;;;;;;;;;5049822;28;20044;-53
2022/08/12 14:58:23;;;;;;;1.75;1.30;;;;;;;;;;5050056;28;20435;-60
2022/08/12 15:03:34;;;;;;;1.30;1.27;;;;;;;;;;5050786;28;20047;-61
2022/08/12 15:06:02;;;;;;;1.70;1.50;;;;;;;;;;5050621;28;20435;-60
2022/08/12 15:08:34;;;;;;;3.42;1.60;;;;;;;;;;5050208;28;20029;-62
2022/08/12 15:11:01;;;;;;;3.20;1.40;;;;;;;;;;5050586;28;20037;-60
2022/08/12 15:13:30;;;;;;;0.77;0.77;;;;;;;;;;5050451;28;20021;-60
2022/08/12 15:15:57;;;;;;;2.85;1.30;;;;;;;;;;5051300;28;20603;-59
2022/08/12 15:18:24;;;;;;;3.45;1.70;;;;;;;;;;5054479;28;20103;-61
2022/08/12 15:20:51;;;;;;;1.30;1.20;;;;;;;;;;5054767;28;20140;-60
2022/08/12 15:23:17;;;;;;;1.08;1.00;;;;;;;;;;5054143;28;20492;-61
2022/08/12 15:25:46;;;;;;;2.90;1.40;;;;;;;;;;5054434;28;20087;-62
2022/08/12 15:28:21;;;;;;;3.72;1.30;;;;;;;;;;5054258;28;20538;-48
2022/08/12 15:30:48;;;;;;;3.08;1.50;;;;;;;;;;5054249;28;20021;-57
2022/08/12 15:33:13;;;;;;;1.60;1.50;;;;;;;;;;5054051;28;20447;-57
2022/08/12 15:35:39;;;;;;;3.55;1.30;;;;;;;;;;5054310;28;20083;-57
2022/08/12 15:38:09;;;;;;;1.25;1.10;;;;;;;;;;5054084;28;20056;-57
2022/08/12 15:40:37;;;;;;;1.60;1.50;;;;;;;;;;5054332;28;20087;-55
2022/08/12 15:43:05;;;;;;;0.98;0.98;;;;;;;;;;5054023;28;20056;-58
2022/08/12 15:45:33;;;;;;;0.88;0.88;;;;;;;;;;5054030;28;20029;-57
2022/08/12 15:47:59;;;;;;;2.25;1.35;;;;;;;;;;5054113;28;20539;-61
2022/08/12 15:50:28;;;;;;;2.83;1.30;;;;;;;;;;5054181;28;20098;-59
2022/08/12 15:52:54;;;;;;;1.98;1.50;;;;;;;;;;5054158;28;20024;-50
2022/08/12 15:55:23;;;;;;;2.45;1.40;;;;;;;;;;5053762;28;20032;-49
2022/08/12 15:57:53;;;;;;;2.42;1.58;;;;;;;;;;5054024;28;20041;-53
2022/08/12 16:00:38;;;;;;;2.20;1.38;;;;;;;;;;5053243;28;20526;-61
2022/08/12 16:03:08;;;;;;;3.42;1.38;;;;;;;;;;5035718;28;20036;-48
2022/08/12 16:05:39;;;;;;;2.03;1.50;;;;;;;;;;5053470;28;20029;-57
2022/08/12 16:08:09;;;;;;;4.03;1.60;;;;;;;;;;5053560;28;20074;-62
2022/08/12 16:10:35;;;;;;;2.63;1.42;;;;;;;;;;5053501;28;20032;-59
2022/08/12 16:13:11;;;;;;;2.22;1.20;;;;;;;;;;5053377;28;20029;-61
2022/08/12 16:15:39;;;;;;;3.45;1.40;;;;;;;;;;5053379;28;20025;-51
2022/08/12 16:18:05;;;;;;;2.03;1.30;;;;;;;;;;5053295;28;20029;-62
2022/08/12 16:20:31;;;;;;;2.65;1.63;;;;;;;;;;5053146;28;20029;-63
2022/08/12 16:23:02;;;;;;;3.83;1.35;;;;;;;;;;5053536;28;20039;-61
2022/08/12 16:25:29;;;;;;;2.03;1.30;;;;;;;;;;5053395;28;20100;-57
2022/08/12 16:27:57;;;;;;;3.22;1.42;;;;;;;;;;5052132;28;20037;-46
2022/08/12 16:30:29;;;;;;;2.30;1.30;;;;;;;;;;5053594;28;20033;-48
2022/08/12 16:33:07;;;;;;;2.03;1.52;;;;;;;;;;5052893;28;20088;-50
2022/08/12 16:35:33;;;;;;;4.43;1.48;;;;;;;;;;5053155;28;20104;-44
2022/08/12 16:37:58;;;;;;;3.13;1.30;;;;;;;;;;5033342;28;20056;-50
2022/08/12 16:40:24;;;;;;;2.45;1.73;;;;;;;;;;5053166;28;20029;-51
2022/08/12 16:42:49;;;;;;;2.65;1.33;;;;;;;;;;5053130;28;20025;-50